createdAt,value
2022-08-05T00:00:28.868Z,99854.88
2022-08-05T00:02:59.726Z,99855.28
2022-08-05T00:06:04.822Z,99853.59
2022-08-05T00:08:35.010Z,99855.03
2022-08-05T00:11:27.992Z,99857.09
2022-08-05T00:14:00.252Z,99859.16
2022-08-05T00:16:35.653Z,99858.50
2022-08-05T00:19:07.618Z,99852.06
2022-08-05T00:21:37.889Z,99855.16
2022-08-05T00:24:10.367Z,99852.03
2022-08-05T00:26:51.827Z,99841.88
2022-08-05T00:29:25.498Z,99854.03
2022-08-05T00:32:13.169Z,99851.09
2022-08-05T00:35:03.918Z,99854.63
2022-08-05T00:37:53.117Z,99855.25
2022-08-05T00:40:27.889Z,99848.16
2022-08-05T00:43:07.434Z,99850.66
2022-08-05T00:45:43.654Z,99846.69
2022-08-05T00:48:15.238Z,99846.69
2022-08-05T00:50:47.174Z,99845.22
2022-08-05T00:54:01.296Z,99841.06
2022-08-05T00:56:10.747Z,99846.22
2022-08-05T00:58:44.992Z,99840.25
2022-08-05T01:01:24.990Z,99843.94
2022-08-05T01:04:14.121Z,99846.63
2022-08-05T01:06:48.610Z,99838.13
2022-08-05T01:09:19.910Z,99841.22
2022-08-05T01:11:53.870Z,99837.25
2022-08-05T01:14:34.448Z,99834.75
2022-08-05T01:17:09.854Z,99827.47
2022-08-05T01:20:00.701Z,99821.47
2022-08-05T01:22:46.966Z,99833.03
2022-08-05T01:25:40.457Z,99837.16
2022-08-05T01:28:34.310Z,99837.56
2022-08-05T01:31:11.407Z,99835.91
2022-08-05T01:33:49.234Z,99825.50
2022-08-05T01:36:28.710Z,99829.41
2022-08-05T01:39:00.301Z,99838.28
2022-08-05T01:41:37.568Z,99832.28
2022-08-05T01:44:11.525Z,99831.00
2022-08-05T01:46:46.295Z,99841.50
2022-08-05T01:49:23.908Z,99843.34
2022-08-05T01:51:59.000Z,99846.22
2022-08-05T01:54:46.260Z,99845.59
2022-08-05T01:58:18.758Z,99847.25
2022-08-05T02:00:15.194Z,99842.28
2022-08-05T02:02:54.703Z,99837.31
2022-08-05T02:05:28.552Z,99846.38
2022-08-05T02:08:01.714Z,99839.72
2022-08-05T02:10:37.642Z,99840.09
2022-08-05T02:13:16.486Z,99838.44
2022-08-05T02:15:54.727Z,99834.69
2022-08-05T02:18:34.327Z,99832.38
2022-08-05T02:21:14.717Z,99837.53
2022-08-05T02:23:49.199Z,99837.31
2022-08-05T02:26:26.534Z,99827.63
2022-08-05T02:28:59.054Z,99831.50
2022-08-05T02:31:35.211Z,99832.34
2022-08-05T02:34:09.863Z,99827.72
2022-08-05T02:36:44.679Z,99829.38
2022-08-05T02:39:18.638Z,99827.91
2022-08-05T02:42:00.993Z,99828.28
2022-08-05T02:44:33.999Z,99814.81
2022-08-05T02:47:09.233Z,99826.00
2022-08-05T02:49:44.672Z,99824.53
2022-08-05T02:52:29.609Z,99835.25
2022-08-05T02:55:05.558Z,99829.25
2022-08-05T02:58:10.664Z,99830.28
2022-08-05T03:00:30.032Z,99834.00
2022-08-05T03:03:10.188Z,99832.69
2022-08-05T03:06:55.891Z,99823.00
2022-08-05T03:08:33.881Z,99834.00
2022-08-05T03:11:55.351Z,99820.69
2022-08-05T03:14:03.084Z,99836.59
2022-08-05T03:16:34.016Z,99824.41
2022-08-05T03:19:12.745Z,99812.59
2022-08-05T03:21:48.731Z,99818.22
2022-08-05T03:24:29.348Z,99822.75
2022-08-05T03:27:03.460Z,99823.56
2022-08-05T03:29:45.821Z,99821.44
2022-08-05T03:32:31.072Z,99825.22
2022-08-05T03:35:05.624Z,99813.41
2022-08-05T03:37:41.650Z,99824.03
2022-08-05T03:40:24.311Z,99818.66
2022-08-05T03:43:58.566Z,99820.31
2022-08-05T03:45:57.513Z,99821.41
2022-08-05T03:48:30.405Z,99814.41
2022-08-05T03:52:38.612Z,99817.31
2022-08-05T03:55:52.891Z,99817.38
2022-08-05T03:57:02.706Z,99813.69
2022-08-05T03:59:55.610Z,99821.59
2022-08-05T04:02:38.957Z,99821.03
2022-08-05T04:05:16.991Z,99823.94
2022-08-05T04:07:58.104Z,99815.72
2022-08-05T04:10:37.699Z,99819.94
2022-08-05T04:13:10.148Z,99824.47
2022-08-05T04:15:52.850Z,99818.53
2022-08-05T04:18:34.241Z,99826.84
2022-08-05T04:21:05.557Z,99827.06
2022-08-05T04:24:04.836Z,99821.13
2022-08-05T04:26:32.414Z,99826.38
2022-08-05T04:29:07.217Z,99827.66
2022-08-05T04:31:38.744Z,99824.59
2022-08-05T04:34:18.342Z,99827.28
2022-08-05T04:36:59.881Z,99820.38
2022-08-05T04:39:35.293Z,99816.91
2022-08-05T04:42:06.074Z,99835.38
2022-08-05T04:44:36.714Z,99830.97
2022-08-05T04:47:08.733Z,99826.69
2022-08-05T04:50:01.862Z,99825.50
2022-08-05T04:52:34.087Z,99812.53
2022-08-05T04:55:14.558Z,99820.09
2022-08-05T04:57:51.646Z,99818.41
2022-08-05T05:00:27.556Z,99825.34
2022-08-05T05:03:02.897Z,99803.56
2022-08-05T05:05:34.717Z,99814.34
2022-08-05T05:08:26.713Z,99812.81
2022-08-05T05:11:03.213Z,99820.31
2022-08-05T05:13:43.191Z,99811.56
2022-08-05T05:16:15.448Z,99821.19
2022-08-05T05:19:09.004Z,99819.09
2022-08-05T05:21:36.626Z,99812.91
2022-08-05T05:24:09.289Z,99813.09
2022-08-05T05:26:42.084Z,99812.69
2022-08-05T05:29:16.958Z,99818.16
2022-08-05T05:31:49.370Z,99826.50
2022-08-05T05:34:26.663Z,99828.69
2022-08-05T05:36:57.426Z,99827.78
2022-08-05T05:39:31.731Z,99820.97
2022-08-05T05:42:07.975Z,99818.91
2022-08-05T05:44:43.120Z,99825.78
2022-08-05T05:47:21.630Z,99817.31
2022-08-05T05:49:57.002Z,99818.47
2022-08-05T05:52:34.680Z,99814.91
2022-08-05T05:55:13.294Z,99807.81
2022-08-05T05:57:52.683Z,99810.28
2022-08-05T06:00:27.716Z,99810.25
2022-08-05T06:03:03.473Z,99810.81
2022-08-05T06:05:55.521Z,99812.66
2022-08-05T06:08:32.642Z,99807.16
2022-08-05T06:11:04.067Z,99805.97
2022-08-05T06:13:40.901Z,99809.44
2022-08-05T06:16:31.761Z,99813.34
2022-08-05T06:19:05.819Z,99809.72
2022-08-05T06:21:41.772Z,99808.03
2022-08-05T06:24:14.807Z,99805.72
2022-08-05T06:26:51.600Z,99797.91
2022-08-05T06:29:46.768Z,99804.75
2022-08-05T06:32:25.190Z,99809.41
2022-08-05T06:35:00.258Z,99804.28
2022-08-05T06:37:56.321Z,99813.88
2022-08-05T06:40:28.083Z,99815.69
2022-08-05T06:43:02.713Z,99806.25
2022-08-05T06:45:44.579Z,99814.06
2022-08-05T06:48:54.648Z,99808.56
2022-08-05T06:51:23.891Z,99812.84
2022-08-05T06:53:59.982Z,99808.81
2022-08-05T06:56:30.285Z,99809.16
2022-08-05T06:59:09.594Z,99813.78
2022-08-05T07:01:47.183Z,99804.03
2022-08-05T07:04:23.077Z,99806.84
2022-08-05T07:06:53.166Z,99812.78
2022-08-05T07:09:24.970Z,99803.63
2022-08-05T07:11:55.951Z,99800.81
2022-08-05T07:14:43.072Z,99804.72
2022-08-05T07:18:01.615Z,99804.38
2022-08-05T07:20:32.098Z,99803.25
2022-08-05T07:23:01.044Z,99802.16
2022-08-05T07:25:55.120Z,99804.28
2022-08-05T07:28:22.369Z,99809.78
2022-08-05T07:30:55.489Z,99810.38
2022-08-05T07:33:36.983Z,99809.03
2022-08-05T07:36:20.576Z,99801.81
2022-08-05T07:38:54.879Z,99798.84
2022-08-05T07:42:13.532Z,99798.22
2022-08-05T07:44:18.928Z,99797.19
2022-08-05T07:46:50.392Z,99796.91
2022-08-05T07:49:23.563Z,99793.69
2022-08-05T07:51:55.053Z,99796.88
2022-08-05T07:54:31.718Z,99800.38
2022-08-05T07:57:18.114Z,99806.09
2022-08-05T07:59:59.447Z,99804.47
2022-08-05T08:03:14.173Z,99804.78
2022-08-05T08:05:24.554Z,99802.03
2022-08-05T08:07:59.040Z,99794.91
2022-08-05T08:10:31.242Z,99791.19
2022-08-05T08:13:03.035Z,99795.91
2022-08-05T08:15:37.146Z,99793.19
2022-08-05T08:18:24.088Z,99794.72
2022-08-05T08:21:02.364Z,99797.84
2022-08-05T08:24:01.606Z,99790.72
2022-08-05T08:26:27.115Z,99794.97
2022-08-05T08:29:22.179Z,99795.91
2022-08-05T08:31:53.007Z,99784.00
2022-08-05T08:34:30.750Z,99784.97
2022-08-05T08:37:06.221Z,99784.63
2022-08-05T08:39:38.184Z,99786.13
2022-08-05T08:42:34.585Z,99785.09
2022-08-05T08:45:23.475Z,99779.59
2022-08-05T08:48:10.526Z,99784.34
2022-08-05T08:51:03.960Z,99779.59
2022-08-05T08:53:45.173Z,99777.78
2022-08-05T08:56:15.709Z,99786.00
2022-08-05T08:58:48.617Z,99758.25
2022-08-05T09:01:19.968Z,99765.13
2022-08-05T09:03:55.221Z,99769.44
2022-08-05T09:06:28.038Z,99771.28
2022-08-05T09:09:03.564Z,99764.41
2022-08-05T09:11:51.473Z,99768.16
2022-08-05T09:14:56.575Z,99763.28
2022-08-05T09:17:42.335Z,99753.50
2022-08-05T09:20:08.487Z,99747.69
2022-08-05T09:23:18.589Z,99757.69
2022-08-05T09:26:02.156Z,99755.97
2022-08-05T09:28:36.394Z,99760.94
2022-08-05T09:31:44.139Z,99738.59
2022-08-05T09:34:01.578Z,99744.84
2022-08-05T09:36:55.280Z,99746.38
2022-08-05T09:39:45.386Z,99743.84
2022-08-05T09:42:24.092Z,99742.00
2022-08-05T09:45:17.243Z,99737.06
2022-08-05T09:47:56.483Z,99729.06
2022-08-05T09:50:44.808Z,99734.06
2022-08-05T09:53:22.779Z,99731.50
2022-08-05T09:56:04.799Z,99727.31
2022-08-05T09:58:44.525Z,99713.94
2022-08-05T10:01:31.444Z,99720.28
2022-08-05T10:04:10.314Z,99719.50
2022-08-05T10:06:54.642Z,99718.69
2022-08-05T10:09:28.228Z,99713.50
2022-08-05T10:12:18.811Z,99708.19
2022-08-05T10:15:26.125Z,99708.56
2022-08-05T10:18:10.316Z,99710.81
2022-08-05T10:20:47.811Z,99706.59
2022-08-05T10:23:55.326Z,99712.31
2022-08-05T10:26:15.100Z,99702.22
2022-08-05T10:28:50.006Z,99705.28
2022-08-05T10:33:01.486Z,99699.47
2022-08-05T10:34:13.454Z,99686.09
2022-08-05T10:36:45.050Z,99695.28
2022-08-05T10:39:24.301Z,99691.09
2022-08-05T10:42:02.635Z,99682.84
2022-08-05T10:44:35.125Z,99674.13
2022-08-05T10:47:26.958Z,99669.53
2022-08-05T10:50:33.130Z,99676.53
2022-08-05T10:53:02.180Z,99673.28
2022-08-05T10:56:03.232Z,99671.63
2022-08-05T10:58:35.777Z,99671.72
2022-08-05T11:01:11.394Z,99671.53
2022-08-05T11:04:03.258Z,99661.44
2022-08-05T11:06:37.962Z,99658.72
2022-08-05T11:09:31.896Z,99660.75
2022-08-05T11:12:50.817Z,99668.41
2022-08-05T11:16:00.803Z,99661.31
2022-08-05T11:18:29.717Z,99670.50
2022-08-05T11:21:06.249Z,99662.84
2022-08-05T11:24:04.618Z,99661.31
2022-08-05T11:26:36.979Z,99655.81
2022-08-05T11:29:13.130Z,99649.25
2022-08-05T11:31:58.457Z,99655.94
2022-08-05T11:34:47.429Z,99636.84
2022-08-05T11:38:27.961Z,99637.38
2022-08-05T11:41:14.045Z,99635.66
2022-08-05T11:44:07.442Z,99634.03
2022-08-05T11:46:58.658Z,99633.31
2022-08-05T11:53:21.376Z,99629.09
2022-08-05T11:55:59.441Z,99619.53
2022-08-05T11:58:34.628Z,99627.28
2022-08-05T12:01:10.486Z,99624.50
2022-08-05T12:03:55.821Z,99628.63
2022-08-05T12:06:29.550Z,99625.41
2022-08-05T12:09:02.841Z,99622.00
2022-08-05T12:11:39.970Z,99626.28
2022-08-05T12:14:11.692Z,99630.78
2022-08-05T12:16:45.142Z,99618.16
2022-08-05T12:20:16.684Z,99611.13
2022-08-05T12:22:09.723Z,99610.28
2022-08-05T12:24:49.543Z,99612.56
2022-08-05T12:27:25.699Z,99607.34
2022-08-05T12:30:05.136Z,99606.97
2022-08-05T12:32:36.132Z,99594.44
2022-08-05T12:35:12.242Z,99595.88
2022-08-05T12:37:49.724Z,99598.09
2022-08-05T12:40:30.982Z,99592.50
2022-08-05T12:43:01.446Z,99588.22
2022-08-05T12:45:42.409Z,99580.25
2022-08-05T12:48:27.141Z,99573.50
2022-08-05T12:51:21.912Z,99577.72
2022-08-05T12:54:14.753Z,99575.59
2022-08-05T12:56:57.903Z,99576.47
2022-08-05T13:00:08.522Z,99579.34
2022-08-05T13:02:30.574Z,99574.72
2022-08-05T13:05:01.359Z,99576.41
2022-08-05T13:07:57.221Z,99572.91
2022-08-05T13:10:24.299Z,99568.28
2022-08-05T13:12:59.854Z,99566.72
2022-08-05T13:15:41.680Z,99562.50
2022-08-05T13:18:20.946Z,99555.44
2022-08-05T13:20:53.150Z,99549.91
2022-08-05T13:23:23.318Z,99554.69
2022-08-05T13:25:59.547Z,99551.53
2022-08-05T13:28:35.198Z,99547.19
2022-08-05T13:31:14.681Z,99542.38
2022-08-05T13:34:23.462Z,99551.94
2022-08-05T13:36:36.139Z,99543.88
2022-08-05T13:39:07.791Z,99539.72
2022-08-05T13:41:55.318Z,99548.63
2022-08-05T13:44:28.527Z,99541.25
2022-08-05T13:47:04.647Z,99534.28
2022-08-05T13:49:45.322Z,99531.09
2022-08-05T13:52:19.716Z,99526.38
2022-08-05T13:55:02.592Z,99534.50
2022-08-05T13:57:49.074Z,99522.56
2022-08-05T14:00:27.719Z,99519.75
2022-08-05T14:03:01.215Z,99512.31
2022-08-05T14:06:24.745Z,99515.59
2022-08-05T14:08:27.667Z,99505.59
2022-08-05T14:11:03.236Z,99500.66
2022-08-05T14:13:48.769Z,99501.59
2022-08-05T14:16:28.000Z,99492.84
2022-08-05T14:18:58.216Z,99506.28
2022-08-05T14:22:09.725Z,99493.97
2022-08-05T14:24:28.518Z,99489.75
2022-08-05T14:27:18.366Z,99496.44
2022-08-05T14:29:52.115Z,99496.28
2022-08-05T14:32:26.987Z,99494.56
2022-08-05T14:35:01.175Z,99497.44
2022-08-05T14:37:45.539Z,99488.84
2022-08-05T14:40:20.351Z,99486.63
2022-08-05T14:42:54.980Z,99484.59
2022-08-05T14:45:26.280Z,99485.44
2022-08-05T14:48:05.284Z,99478.31
2022-08-05T14:50:40.772Z,99481.69
2022-08-05T14:53:12.456Z,99471.28
2022-08-05T14:55:43.883Z,99467.44
2022-08-05T14:58:22.446Z,99475.63
2022-08-05T15:00:58.430Z,99473.09
2022-08-05T15:03:39.128Z,99471.25
2022-08-05T15:06:15.629Z,99464.75
2022-08-05T15:09:01.210Z,99461.66
2022-08-05T15:11:51.256Z,99452.38
2022-08-05T15:14:34.470Z,99458.59
2022-08-05T15:17:45.121Z,99445.25
2022-08-05T15:20:03.825Z,99458.91
2022-08-05T15:22:34.113Z,99455.00
2022-08-05T15:25:14.189Z,99461.34
2022-08-05T15:27:52.078Z,99461.50
2022-08-05T15:30:22.852Z,99455.69
2022-08-05T15:32:53.269Z,99447.50
2022-08-05T15:35:28.780Z,99447.16
2022-08-05T15:38:33.389Z,99447.59
2022-08-05T15:41:21.064Z,99439.56
2022-08-05T15:43:48.364Z,99439.16
2022-08-05T15:46:18.662Z,99442.41
2022-08-05T15:48:57.927Z,99439.75
2022-08-05T15:52:10.363Z,99442.41
2022-08-05T15:54:34.435Z,99433.94
2022-08-05T15:57:16.034Z,99439.09
2022-08-05T15:59:46.539Z,99438.41
2022-08-05T16:02:19.825Z,99431.81
2022-08-05T16:04:56.145Z,99424.91
2022-08-05T16:07:29.597Z,99429.16
2022-08-05T16:10:00.634Z,99442.59
2022-08-05T16:12:31.174Z,99427.00
2022-08-05T16:15:02.392Z,99435.53
2022-08-05T16:17:34.188Z,99436.06
2022-08-05T16:20:11.962Z,99436.78
2022-08-05T16:22:45.292Z,99436.13
2022-08-05T16:25:15.483Z,99432.72
2022-08-05T16:28:04.822Z,99432.00
2022-08-05T16:30:38.519Z,99440.25
2022-08-05T16:33:10.578Z,99441.97
2022-08-05T16:35:42.917Z,99439.59
2022-08-05T16:38:25.108Z,99430.50
2022-08-05T16:41:00.265Z,99443.25
2022-08-05T16:43:33.291Z,99438.53
2022-08-05T16:46:23.647Z,99436.28
2022-08-05T16:48:55.602Z,99435.81
2022-08-05T16:51:51.063Z,99435.28
2022-08-05T16:54:39.249Z,99438.97
2022-08-05T16:57:22.366Z,99427.81
2022-08-05T17:00:26.154Z,99433.56
2022-08-05T17:03:09.254Z,99426.88
2022-08-05T17:05:54.151Z,99434.84
2022-08-05T17:08:36.041Z,99437.72
2022-08-05T17:11:23.452Z,99438.63
2022-08-05T17:14:05.427Z,99436.50
2022-08-05T17:16:37.387Z,99448.69
2022-08-05T17:19:09.653Z,99449.34
2022-08-05T17:21:42.049Z,99438.28
2022-08-05T17:24:34.982Z,99445.97
2022-08-05T17:27:11.885Z,99454.72
2022-08-05T17:29:51.418Z,99458.91
2022-08-05T17:32:30.751Z,99468.50
2022-08-05T17:35:04.161Z,99464.75
2022-08-05T17:37:40.003Z,99467.59
2022-08-05T17:40:14.975Z,99463.81
2022-08-05T17:42:50.768Z,99463.69
2022-08-05T17:45:23.093Z,99468.16
2022-08-05T17:47:56.315Z,99469.53
2022-08-05T17:50:30.423Z,99470.44
2022-08-05T17:53:02.410Z,99476.53
2022-08-05T17:55:34.291Z,99473.81
2022-08-05T17:58:16.198Z,99476.84
2022-08-05T18:00:50.572Z,99476.00
2022-08-05T18:06:15.543Z,99473.84
2022-08-05T18:08:52.525Z,99485.81
2022-08-05T18:11:32.539Z,99479.53
2022-08-05T18:14:13.685Z,99477.63
2022-08-05T18:16:51.994Z,99485.72
2022-08-05T18:19:26.023Z,99486.75
2022-08-05T18:22:08.226Z,99483.41
2022-08-05T18:24:40.639Z,99474.59
2022-08-05T18:27:18.583Z,99484.88
2022-08-05T18:29:54.606Z,99481.56
2022-08-05T18:32:28.170Z,99490.75
2022-08-05T18:34:59.959Z,99494.50
2022-08-05T18:37:34.581Z,99503.88
2022-08-05T18:40:33.802Z,99497.56
2022-08-05T18:43:04.182Z,99506.72
2022-08-05T18:45:42.599Z,99508.03
2022-08-05T18:48:30.226Z,99514.75
2022-08-05T18:52:05.668Z,99505.91
2022-08-05T18:54:06.959Z,99507.38
2022-08-05T18:56:39.146Z,99511.63
2022-08-05T18:59:42.046Z,99516.91
2022-08-05T19:02:03.684Z,99513.63
2022-08-05T19:04:33.935Z,99510.34
2022-08-05T19:07:24.324Z,99515.47
2022-08-05T19:10:01.267Z,99520.53
2022-08-05T19:12:37.081Z,99517.69
2022-08-05T19:15:24.928Z,99517.84
2022-08-05T19:18:09.239Z,99524.53
2022-08-05T19:20:46.594Z,99522.25
2022-08-05T19:24:03.905Z,99521.34
2022-08-05T19:26:09.233Z,99526.72
2022-08-05T19:28:42.314Z,99524.94
2022-08-05T19:31:19.283Z,99518.53
2022-08-05T19:33:56.325Z,99516.97
2022-08-05T19:36:29.235Z,99518.94
2022-08-05T19:39:01.961Z,99525.63
2022-08-05T19:41:58.504Z,99523.88
2022-08-05T19:44:24.602Z,99522.97
2022-08-05T19:46:59.882Z,99522.88
2022-08-05T19:49:32.713Z,99507.59
2022-08-05T19:52:08.778Z,99521.00
2022-08-05T19:54:53.814Z,99514.09
2022-08-05T19:57:48.999Z,99524.38
2022-08-05T20:00:15.115Z,99524.88
2022-08-05T20:02:45.285Z,99527.81
2022-08-05T20:05:24.753Z,99521.25
2022-08-05T20:07:58.773Z,99528.41
2022-08-05T20:10:29.487Z,99533.50
2022-08-05T20:12:59.662Z,99524.72
2022-08-05T20:15:51.569Z,99532.75
2022-08-05T20:18:33.486Z,99529.34
2022-08-05T20:21:12.039Z,99542.78
2022-08-05T20:23:50.869Z,99532.94
2022-08-05T20:26:23.439Z,99537.19
2022-08-05T20:28:56.283Z,99537.34
2022-08-05T20:31:42.094Z,99531.81
2022-08-05T20:34:20.093Z,99529.75
2022-08-05T20:36:52.907Z,99533.59
2022-08-05T20:39:23.315Z,99544.09
2022-08-05T20:41:53.850Z,99540.66
2022-08-05T20:44:36.349Z,99534.91
2022-08-05T20:47:09.554Z,99537.03
2022-08-05T20:49:40.938Z,99536.69
2022-08-05T20:52:14.150Z,99533.03
2022-08-05T20:54:59.170Z,99534.59
2022-08-05T20:57:43.893Z,99532.38
2022-08-05T21:00:40.522Z,99528.72
2022-08-05T21:03:09.138Z,99539.19
2022-08-05T21:05:53.606Z,99535.78
2022-08-05T21:08:42.016Z,99540.03
2022-08-05T21:11:15.116Z,99536.16
2022-08-05T21:14:03.046Z,99542.50
2022-08-05T21:16:33.671Z,99531.34
2022-08-05T21:19:06.263Z,99546.81
2022-08-05T21:21:39.339Z,99543.75
2022-08-05T21:24:16.935Z,99560.47
2022-08-05T21:26:53.567Z,99565.16
2022-08-05T21:29:32.078Z,99558.69
2022-08-05T21:32:04.198Z,99560.91
2022-08-05T21:34:35.574Z,99553.63
2022-08-05T21:37:08.180Z,99548.91
2022-08-05T21:39:41.162Z,99559.38
2022-08-05T21:42:30.584Z,99560.31
2022-08-05T21:45:01.943Z,99564.16
2022-08-05T21:47:56.386Z,99556.50
2022-08-05T21:50:23.860Z,99560.50
2022-08-05T21:52:54.004Z,99566.13
2022-08-05T21:56:01.541Z,99561.91
2022-08-05T21:58:30.867Z,99565.66
2022-08-05T22:01:04.707Z,99565.94
2022-08-05T22:03:52.581Z,99568.88
2022-08-05T22:06:35.246Z,99574.75
2022-08-05T22:09:14.651Z,99577.91
2022-08-05T22:11:48.327Z,99574.59
2022-08-05T22:14:35.325Z,99573.16
2022-08-05T22:17:08.624Z,99581.63
2022-08-05T22:19:57.487Z,99583.72
2022-08-05T22:22:29.404Z,99577.72
2022-08-05T22:25:21.342Z,99574.28
2022-08-05T22:28:10.656Z,99572.50
2022-08-05T22:30:55.946Z,99571.31
2022-08-05T22:33:55.881Z,99574.69
2022-08-05T22:36:19.252Z,99575.59
2022-08-05T22:38:54.754Z,99577.47
2022-08-05T22:42:04.521Z,99571.47
2022-08-05T22:44:19.241Z,99568.16
2022-08-05T22:46:49.409Z,99563.22
2022-08-05T22:50:18.061Z,99565.56
2022-08-05T22:52:16.707Z,99568.47
2022-08-05T22:55:00.878Z,99563.72
2022-08-05T22:57:36.646Z,99556.31
2022-08-05T23:00:12.100Z,99557.34
2022-08-05T23:02:48.762Z,99550.53
2022-08-05T23:05:21.911Z,99552.63
2022-08-05T23:07:53.357Z,99544.97
2022-08-05T23:10:24.445Z,99548.94
2022-08-05T23:12:56.019Z,99543.03
2022-08-05T23:15:34.998Z,99552.56
2022-08-05T23:18:11.635Z,99517.72
2022-08-05T23:20:46.565Z,99546.19
2022-08-05T23:23:16.707Z,99546.84
2022-08-05T23:25:50.869Z,99550.81
2022-08-05T23:31:16.976Z,99545.03
2022-08-05T23:34:04.059Z,99547.13
2022-08-05T23:36:39.766Z,99537.88
2022-08-05T23:39:17.138Z,99541.22
2022-08-05T23:41:56.369Z,99538.97
2022-08-05T23:44:27.951Z,99539.41
2022-08-05T23:47:14.437Z,99543.97
2022-08-05T23:49:45.685Z,99543.38
2022-08-05T23:52:28.495Z,99538.41
2022-08-05T23:55:00.307Z,99539.47
2022-08-05T23:57:31.793Z,99537.22
